createdAt,value
2022-12-20T00:01:22.351Z,101096.13
2022-12-20T00:03:57.080Z,101093.22
2022-12-20T00:06:30.511Z,101096.78
2022-12-20T00:09:05.072Z,101100.38
2022-12-20T00:11:41.075Z,101101.59
2022-12-20T00:14:13.862Z,101096.22
2022-12-20T00:16:47.978Z,101107.97
2022-12-20T00:19:20.859Z,101101.88
2022-12-20T00:21:53.884Z,101103.97
2022-12-20T00:24:26.697Z,101098.97
2022-12-20T00:27:01.716Z,101095.25
2022-12-20T00:29:35.922Z,101094.72
2022-12-20T00:32:10.286Z,101097.03
2022-12-20T00:34:43.308Z,101080.19
2022-12-20T00:37:17.980Z,101083.09
2022-12-20T00:39:50.892Z,101066.81
2022-12-20T00:42:23.996Z,101069.56
2022-12-20T00:44:56.989Z,101051.22
2022-12-20T00:47:31.207Z,101049.88
2022-12-20T00:50:04.144Z,101039.91
2022-12-20T00:52:36.998Z,101035.50
2022-12-20T00:55:13.175Z,101039.56
2022-12-20T00:57:48.343Z,101051.47
2022-12-20T01:00:22.422Z,101049.81
2022-12-20T01:02:56.773Z,101040.19
2022-12-20T01:05:29.805Z,101050.31
2022-12-20T01:08:02.844Z,101044.75
2022-12-20T01:10:35.979Z,101040.34
2022-12-20T01:13:09.098Z,101038.03
2022-12-20T01:15:41.838Z,101030.28
2022-12-20T01:18:16.626Z,101028.03
2022-12-20T01:20:50.458Z,101017.03
2022-12-20T01:23:23.181Z,101001.63
2022-12-20T01:25:56.163Z,101010.50
2022-12-20T01:28:29.452Z,101010.84
2022-12-20T01:31:02.368Z,101015.44
2022-12-20T01:33:37.060Z,101001.78
2022-12-20T01:36:13.564Z,100999.53
2022-12-20T01:38:47.047Z,100996.72
2022-12-20T01:41:21.990Z,101002.94
2022-12-20T01:43:57.612Z,100998.31
2022-12-20T01:46:32.636Z,101011.41
2022-12-20T01:49:15.707Z,101003.88
2022-12-20T01:51:53.270Z,101006.25
2022-12-20T01:54:31.875Z,101001.03
2022-12-20T01:57:07.772Z,101003.09
2022-12-20T01:59:50.601Z,101013.16
2022-12-20T02:02:24.718Z,101010.69
2022-12-20T02:04:59.328Z,101012.41
2022-12-20T02:07:35.147Z,101013.56
2022-12-20T02:10:11.256Z,101015.25
2022-12-20T02:12:46.036Z,101010.56
2022-12-20T02:15:39.006Z,101014.19
2022-12-20T02:18:23.312Z,101005.38
2022-12-20T02:21:25.272Z,101006.09
2022-12-20T02:24:49.374Z,101009.84
2022-12-20T02:27:50.103Z,101004.38
2022-12-20T02:30:27.846Z,100997.03
2022-12-20T02:33:03.790Z,100995.88
2022-12-20T02:35:40.357Z,100998.63
2022-12-20T02:38:31.253Z,100992.28
2022-12-20T02:41:10.936Z,100985.16
2022-12-20T02:44:04.005Z,100990.53
2022-12-20T02:46:39.637Z,100988.25
2022-12-20T02:49:16.617Z,100987.78
2022-12-20T02:52:04.517Z,100987.50
2022-12-20T02:54:38.787Z,100980.63
2022-12-20T02:57:17.774Z,100993.22
2022-12-20T02:59:59.120Z,100977.22
2022-12-20T03:02:50.409Z,100992.50
2022-12-20T03:05:26.389Z,101000.84
2022-12-20T03:08:00.783Z,100987.81
2022-12-20T03:10:33.809Z,100987.47
2022-12-20T03:13:06.856Z,100965.13
2022-12-20T03:15:41.334Z,100969.81
2022-12-20T03:18:15.663Z,100974.06
2022-12-20T03:20:48.476Z,100954.09
2022-12-20T03:23:22.218Z,100965.91
2022-12-20T03:25:55.496Z,100967.06
2022-12-20T03:28:55.051Z,100967.88
2022-12-20T03:31:32.473Z,100959.28
2022-12-20T03:34:07.519Z,100974.72
2022-12-20T03:36:41.151Z,100978.09
2022-12-20T03:39:13.934Z,100984.66
2022-12-20T03:41:47.270Z,100977.44
2022-12-20T03:44:25.103Z,100980.63
2022-12-20T03:46:58.636Z,100990.50
2022-12-20T03:49:33.042Z,100982.56
2022-12-20T03:52:06.641Z,100989.41
2022-12-20T03:54:39.699Z,100980.41
2022-12-20T03:57:23.309Z,100990.41
2022-12-20T04:00:01.270Z,100963.47
2022-12-20T04:02:38.472Z,100957.28
2022-12-20T04:05:13.533Z,100964.72
2022-12-20T04:07:46.323Z,100966.06
2022-12-20T04:10:19.297Z,100967.72
2022-12-20T04:12:52.954Z,100973.72
2022-12-20T04:15:26.150Z,100976.00
2022-12-20T04:18:00.136Z,100969.59
2022-12-20T04:20:34.979Z,100965.34
2022-12-20T04:23:19.658Z,100952.75
2022-12-20T04:25:57.021Z,100939.44
2022-12-20T04:28:30.527Z,100948.34
2022-12-20T04:31:04.251Z,100936.53
2022-12-20T04:33:41.619Z,100938.84
2022-12-20T04:36:18.716Z,100926.81
2022-12-20T04:38:51.671Z,100921.63
2022-12-20T04:41:24.510Z,100916.63
2022-12-20T04:44:03.177Z,100916.31
2022-12-20T04:46:42.513Z,100912.47
2022-12-20T04:49:19.529Z,100917.06
2022-12-20T04:51:55.119Z,100897.16
2022-12-20T04:54:27.713Z,100911.50
2022-12-20T04:57:05.688Z,100910.84
2022-12-20T04:59:38.904Z,100897.59
2022-12-20T05:02:11.740Z,100907.66
2022-12-20T05:04:58.173Z,100901.19
2022-12-20T05:07:32.699Z,100901.69
2022-12-20T05:10:06.422Z,100902.47
2022-12-20T05:12:39.328Z,100911.84
2022-12-20T05:15:14.459Z,100900.16
2022-12-20T05:17:48.774Z,100893.09
2022-12-20T05:20:21.889Z,100879.47
2022-12-20T05:23:13.519Z,100883.25
2022-12-20T05:26:07.777Z,100880.50
2022-12-20T05:28:41.058Z,100874.31
2022-12-20T05:31:14.071Z,100875.50
2022-12-20T05:33:46.959Z,100880.56
2022-12-20T05:36:21.762Z,100873.44
2022-12-20T05:39:03.397Z,100877.41
2022-12-20T05:41:37.780Z,100872.63
2022-12-20T05:44:12.353Z,100863.97
2022-12-20T05:46:49.710Z,100865.53
2022-12-20T05:49:27.897Z,100853.72
2022-12-20T05:52:02.800Z,100849.16
2022-12-20T05:54:37.422Z,100857.00
2022-12-20T05:57:22.689Z,100860.19
2022-12-20T05:59:55.981Z,100865.00
2022-12-20T06:02:37.136Z,100846.00
2022-12-20T06:05:10.923Z,100839.78
2022-12-20T06:07:45.193Z,100850.50
2022-12-20T06:10:21.749Z,100852.88
2022-12-20T06:13:02.261Z,100853.06
2022-12-20T06:15:39.581Z,100850.06
2022-12-20T06:18:12.801Z,100863.38
2022-12-20T06:20:53.499Z,100859.53
2022-12-20T06:23:29.180Z,100860.34
2022-12-20T06:26:12.564Z,100861.88
2022-12-20T06:28:54.740Z,100870.53
2022-12-20T06:31:34.908Z,100868.19
2022-12-20T06:34:09.249Z,100860.34
2022-12-20T06:36:46.028Z,100870.03
2022-12-20T06:39:29.589Z,100856.03
2022-12-20T06:42:09.653Z,100852.50
2022-12-20T06:44:45.013Z,100857.69
2022-12-20T06:47:18.470Z,100856.34
2022-12-20T06:49:51.666Z,100864.13
2022-12-20T06:52:28.151Z,100860.97
2022-12-20T06:55:01.455Z,100864.00
2022-12-20T06:57:37.657Z,100859.97
2022-12-20T07:00:12.816Z,100858.16
2022-12-20T07:02:45.856Z,100861.09
2022-12-20T07:05:19.151Z,100867.28
2022-12-20T07:07:51.915Z,100863.38
2022-12-20T07:10:24.696Z,100856.78
2022-12-20T07:12:58.920Z,100861.81
2022-12-20T07:15:31.649Z,100869.59
2022-12-20T07:18:06.851Z,100867.28
2022-12-20T07:20:40.483Z,100864.50
2022-12-20T07:23:13.265Z,100861.41
2022-12-20T07:25:54.537Z,100862.97
2022-12-20T07:28:29.343Z,100868.56
2022-12-20T07:31:04.439Z,100865.41
2022-12-20T07:33:38.867Z,100851.19
2022-12-20T07:36:16.115Z,100852.75
2022-12-20T07:38:52.670Z,100863.75
2022-12-20T07:41:31.333Z,100857.19
2022-12-20T07:44:19.637Z,100860.78
2022-12-20T07:46:58.749Z,100874.97
2022-12-20T07:49:35.334Z,100875.38
2022-12-20T07:52:13.639Z,100875.09
2022-12-20T07:54:52.809Z,100876.25
2022-12-20T07:57:31.917Z,100874.47
2022-12-20T08:00:08.025Z,100879.16
2022-12-20T08:02:51.311Z,100867.59
2022-12-20T08:05:26.153Z,100877.00
2022-12-20T08:08:04.865Z,100876.38
2022-12-20T08:10:39.204Z,100877.28
2022-12-20T08:13:12.396Z,100881.22
2022-12-20T08:15:46.866Z,100874.78
2022-12-20T08:18:21.136Z,100870.72
2022-12-20T08:20:56.642Z,100863.47
2022-12-20T08:23:35.815Z,100859.19
2022-12-20T08:26:09.681Z,100861.63
2022-12-20T08:28:42.829Z,100869.84
2022-12-20T08:31:17.423Z,100869.31
2022-12-20T08:33:51.033Z,100867.72
2022-12-20T08:36:24.636Z,100859.44
2022-12-20T08:38:57.935Z,100872.53
2022-12-20T08:41:32.119Z,100876.78
2022-12-20T08:44:05.472Z,100874.72
2022-12-20T08:46:39.966Z,100872.19
2022-12-20T08:49:13.071Z,100872.06
2022-12-20T08:51:46.090Z,100875.88
2022-12-20T08:54:19.043Z,100874.53
2022-12-20T08:56:52.598Z,100876.78
2022-12-20T08:59:26.277Z,100880.81
2022-12-20T09:02:02.033Z,100881.72
2022-12-20T09:04:35.149Z,100878.19
2022-12-20T09:07:08.306Z,100877.00
2022-12-20T09:09:41.565Z,100880.06
2022-12-20T09:12:16.148Z,100871.25
2022-12-20T09:14:53.100Z,100867.66
2022-12-20T09:17:30.005Z,100864.25
2022-12-20T09:20:02.937Z,100867.00
2022-12-20T09:22:37.941Z,100862.69
2022-12-20T09:25:23.326Z,100863.59
2022-12-20T09:28:07.886Z,100863.63
2022-12-20T09:30:41.313Z,100863.22
2022-12-20T09:33:16.466Z,100870.94
2022-12-20T09:35:49.421Z,100871.47
2022-12-20T09:38:22.565Z,100866.16
2022-12-20T09:40:58.053Z,100876.84
2022-12-20T09:43:31.363Z,100875.69
2022-12-20T09:46:05.014Z,100873.78
2022-12-20T09:48:40.950Z,100877.91
2022-12-20T09:51:43.094Z,100869.78
2022-12-20T09:54:27.147Z,100864.19
2022-12-20T09:57:10.916Z,100878.31
2022-12-20T09:59:49.862Z,100867.84
2022-12-20T10:05:27.206Z,100856.53
2022-12-20T10:08:11.594Z,100859.47
2022-12-20T10:10:57.779Z,100861.13
2022-12-20T10:13:43.685Z,100863.56
2022-12-20T10:16:34.399Z,100867.97
2022-12-20T10:19:22.622Z,100857.03
2022-12-20T10:22:15.717Z,100861.78
2022-12-20T10:25:01.632Z,100863.72
2022-12-20T10:27:38.832Z,100873.59
2022-12-20T10:30:15.893Z,100872.06
2022-12-20T10:32:53.166Z,100868.34
2022-12-20T10:35:32.152Z,100870.53
2022-12-20T10:38:12.655Z,100868.66
2022-12-20T10:44:01.822Z,100875.00
2022-12-20T10:46:42.132Z,100870.69
2022-12-20T10:49:31.627Z,100864.19
2022-12-20T10:52:16.982Z,100861.84
2022-12-20T10:54:51.123Z,100862.47
2022-12-20T10:57:28.345Z,100864.19
2022-12-20T11:00:06.139Z,100856.13
2022-12-20T11:02:44.734Z,100854.00
2022-12-20T11:05:25.903Z,100857.25
2022-12-20T11:08:34.635Z,100866.03
2022-12-20T11:11:15.149Z,100857.00
2022-12-20T11:13:50.025Z,100853.38
2022-12-20T11:16:37.925Z,100857.69
2022-12-20T11:19:43.802Z,100845.56
2022-12-20T11:22:32.431Z,100846.94
2022-12-20T11:25:21.307Z,100845.66
2022-12-20T11:28:11.904Z,100854.44
2022-12-20T11:30:55.306Z,100865.72
2022-12-20T11:33:42.515Z,100858.25
2022-12-20T11:36:26.470Z,100848.84
2022-12-20T11:39:08.212Z,100854.34
2022-12-20T11:41:47.835Z,100852.06
2022-12-20T11:44:30.683Z,100845.78
2022-12-20T11:47:26.973Z,100848.09
2022-12-20T11:50:13.176Z,100846.63
2022-12-20T11:52:52.074Z,100846.25
2022-12-20T11:55:29.882Z,100841.63
2022-12-20T11:58:18.578Z,100852.09
2022-12-20T12:00:58.443Z,100843.56
2022-12-20T12:03:35.169Z,100852.00
2022-12-20T12:06:13.185Z,100839.56
2022-12-20T12:08:50.090Z,100838.72
2022-12-20T12:14:31.236Z,100834.06
2022-12-20T12:17:14.230Z,100824.69
2022-12-20T12:19:52.021Z,100826.72
2022-12-20T12:22:31.706Z,100850.31
2022-12-20T12:25:11.400Z,100837.75
2022-12-20T12:27:44.409Z,100836.53
2022-12-20T12:30:17.607Z,100849.84
2022-12-20T12:32:58.033Z,100829.50
2022-12-20T12:36:05.214Z,100832.69
2022-12-20T12:39:02.080Z,100830.34
2022-12-20T12:41:53.560Z,100832.69
2022-12-20T12:44:43.495Z,100845.97
2022-12-20T12:47:25.835Z,100832.59
2022-12-20T12:50:00.096Z,100841.28
2022-12-20T12:52:52.872Z,100833.47
2022-12-20T12:55:43.591Z,100831.81
2022-12-20T12:58:46.600Z,100832.44
2022-12-20T13:01:49.681Z,100837.63
2022-12-20T13:04:29.053Z,100839.78
2022-12-20T13:07:24.994Z,100846.81
2022-12-20T13:09:57.735Z,100836.66
2022-12-20T13:12:58.841Z,100835.84
2022-12-20T13:16:06.445Z,100836.13
2022-12-20T13:18:39.471Z,100835.94
2022-12-20T13:21:19.329Z,100841.44
2022-12-20T13:24:37.922Z,100843.00
2022-12-20T13:27:36.560Z,100842.25
2022-12-20T13:30:28.736Z,100840.31
2022-12-20T13:33:39.093Z,100835.09
2022-12-20T13:36:32.684Z,100827.75
2022-12-20T13:39:35.714Z,100832.44
2022-12-20T13:42:24.929Z,100823.38
2022-12-20T13:44:58.245Z,100821.91
2022-12-20T13:47:39.693Z,100822.25
2022-12-20T13:50:35.621Z,100828.88
2022-12-20T13:53:18.225Z,100829.28
2022-12-20T13:55:52.561Z,100835.47
2022-12-20T13:58:28.747Z,100835.16
2022-12-20T14:01:07.098Z,100833.56
2022-12-20T14:03:42.903Z,100835.84
2022-12-20T14:06:22.914Z,100831.19
2022-12-20T14:08:59.210Z,100832.00
2022-12-20T14:11:33.527Z,100832.00
2022-12-20T14:14:13.954Z,100832.78
2022-12-20T14:16:46.847Z,100836.31
2022-12-20T14:19:19.557Z,100840.56
2022-12-20T14:21:53.296Z,100839.88
2022-12-20T14:24:28.879Z,100842.59
2022-12-20T14:27:03.210Z,100846.50
2022-12-20T14:29:36.262Z,100841.34
2022-12-20T14:32:19.675Z,100835.16
2022-12-20T14:34:55.350Z,100835.44
2022-12-20T14:37:31.527Z,100830.38
2022-12-20T14:40:18.066Z,100828.78
2022-12-20T14:42:52.868Z,100814.66
2022-12-20T14:45:28.858Z,100813.13
2022-12-20T14:48:09.425Z,100816.59
2022-12-20T14:50:54.217Z,100816.31
2022-12-20T14:53:29.895Z,100817.81
2022-12-20T14:56:06.349Z,100833.50
2022-12-20T14:58:44.045Z,100830.34
2022-12-20T15:01:22.209Z,100826.03
2022-12-20T15:03:59.032Z,100821.63
2022-12-20T15:06:39.478Z,100828.00
2022-12-20T15:09:13.313Z,100829.84
2022-12-20T15:11:48.152Z,100825.63
2022-12-20T15:14:38.061Z,100827.22
2022-12-20T15:17:13.393Z,100833.00
2022-12-20T15:19:49.687Z,100830.75
2022-12-20T15:22:26.000Z,100830.34
2022-12-20T15:24:59.730Z,100833.84
2022-12-20T15:27:37.174Z,100832.34
2022-12-20T15:30:18.736Z,100837.00
2022-12-20T15:32:55.623Z,100849.06
2022-12-20T15:35:29.594Z,100842.91
2022-12-20T15:38:02.625Z,100839.50
2022-12-20T15:40:37.519Z,100835.06
2022-12-20T15:43:14.470Z,100847.38
2022-12-20T15:45:52.021Z,100849.78
2022-12-20T15:48:25.064Z,100844.47
2022-12-20T15:50:59.148Z,100845.16
2022-12-20T15:53:36.118Z,100844.53
2022-12-20T15:56:27.257Z,100844.75
2022-12-20T15:59:12.604Z,100845.44
2022-12-20T16:02:00.751Z,100837.13
2022-12-20T16:04:34.325Z,100839.41
2022-12-20T16:07:12.539Z,100834.00
2022-12-20T16:09:47.318Z,100821.81
2022-12-20T16:12:25.308Z,100825.78
2022-12-20T16:15:01.267Z,100815.19
2022-12-20T16:17:36.387Z,100817.56
2022-12-20T16:20:14.732Z,100819.56
2022-12-20T16:22:48.415Z,100843.84
2022-12-20T16:25:31.115Z,100849.34
2022-12-20T16:28:04.969Z,100852.50
2022-12-20T16:30:38.516Z,100854.81
2022-12-20T16:33:21.252Z,100855.66
2022-12-20T16:36:05.744Z,100844.56
2022-12-20T16:38:39.231Z,100849.00
2022-12-20T16:41:18.432Z,100858.78
2022-12-20T16:43:55.597Z,100856.50
2022-12-20T16:46:32.685Z,100862.78
2022-12-20T16:49:07.413Z,100871.13
2022-12-20T16:51:45.667Z,100864.03
2022-12-20T16:54:21.379Z,100857.72
2022-12-20T16:56:56.815Z,100862.88
2022-12-20T16:59:30.104Z,100864.03
2022-12-20T17:02:15.273Z,100873.41
2022-12-20T17:04:55.045Z,100871.78
2022-12-20T17:07:30.457Z,100875.34
2022-12-20T17:10:03.886Z,100876.22
2022-12-20T17:12:36.961Z,100873.50
2022-12-20T17:15:13.648Z,100874.28
2022-12-20T17:17:47.948Z,100875.72
2022-12-20T17:20:25.040Z,100871.00
2022-12-20T17:26:16.938Z,100867.81
2022-12-20T17:28:59.187Z,100873.94
2022-12-20T17:31:41.376Z,100865.59
2022-12-20T17:34:35.450Z,100874.94
2022-12-20T17:37:20.584Z,100871.81
2022-12-20T17:40:08.764Z,100887.09
2022-12-20T17:42:58.154Z,100898.53
2022-12-20T17:45:44.611Z,100900.81
2022-12-20T17:48:32.128Z,100906.38
2022-12-20T17:51:19.357Z,100902.78
2022-12-20T17:54:06.357Z,100902.44
2022-12-20T17:56:39.704Z,100891.50
2022-12-20T17:59:14.187Z,100889.16
2022-12-20T18:01:48.266Z,100896.94
2022-12-20T18:04:22.570Z,100893.03
2022-12-20T18:06:57.400Z,100896.19
2022-12-20T18:09:35.420Z,100898.53
2022-12-20T18:12:13.780Z,100892.25
2022-12-20T18:14:52.451Z,100894.63
2022-12-20T18:17:34.640Z,100892.25
2022-12-20T18:20:10.397Z,100893.81
2022-12-20T18:22:43.396Z,100889.50
2022-12-20T18:25:20.984Z,100892.97
2022-12-20T18:27:55.396Z,100892.25
2022-12-20T18:30:28.904Z,100898.88
2022-12-20T18:33:01.905Z,100894.81
2022-12-20T18:35:37.739Z,100900.78
2022-12-20T18:38:10.852Z,100894.50
2022-12-20T18:40:47.262Z,100895.69
2022-12-20T18:43:22.249Z,100889.41
2022-12-20T18:45:57.992Z,100894.50
2022-12-20T18:48:31.095Z,100897.16
2022-12-20T18:51:04.284Z,100891.25
2022-12-20T18:53:37.899Z,100896.66
2022-12-20T18:56:15.677Z,100900.63
2022-12-20T18:58:51.798Z,100905.38
2022-12-20T19:01:26.860Z,100899.41
2022-12-20T19:04:02.697Z,100906.00
2022-12-20T19:06:38.918Z,100908.44
2022-12-20T19:09:16.223Z,100911.53
2022-12-20T19:11:56.643Z,100902.13
2022-12-20T19:14:30.809Z,100902.47
2022-12-20T19:17:04.395Z,100899.38
2022-12-20T19:19:40.448Z,100895.03
2022-12-20T19:22:17.483Z,100897.41
2022-12-20T19:24:53.567Z,100898.59
2022-12-20T19:27:28.162Z,100901.75
2022-12-20T19:30:05.250Z,100896.94
2022-12-20T19:32:38.805Z,100909.47
2022-12-20T19:35:52.965Z,100917.28
2022-12-20T19:38:10.672Z,100931.28
2022-12-20T19:40:43.810Z,100941.44
2022-12-20T19:43:17.963Z,100935.63
2022-12-20T19:45:51.059Z,100930.13
2022-12-20T19:48:24.361Z,100933.97
2022-12-20T19:51:06.617Z,100950.03
2022-12-20T19:53:45.719Z,100939.38
2022-12-20T19:56:21.484Z,100941.34
2022-12-20T19:58:56.429Z,100938.19
2022-12-20T20:01:30.431Z,100930.00
2022-12-20T20:04:05.261Z,100932.19
2022-12-20T20:06:38.307Z,100932.19
2022-12-20T20:09:14.161Z,100936.53
2022-12-20T20:11:47.687Z,100938.44
2022-12-20T20:14:22.837Z,100944.69
2022-12-20T20:16:56.020Z,100952.53
2022-12-20T20:19:29.313Z,100969.28
2022-12-20T20:22:02.563Z,100970.44
2022-12-20T20:24:35.755Z,100971.31
2022-12-20T20:27:08.748Z,100967.16
2022-12-20T20:29:43.058Z,100968.50
2022-12-20T20:32:15.982Z,100964.91
2022-12-20T20:34:49.715Z,100968.88
2022-12-20T20:37:22.664Z,100964.09
2022-12-20T20:39:55.476Z,100971.91
2022-12-20T20:42:28.296Z,100972.31
2022-12-20T20:45:05.565Z,100965.63
2022-12-20T20:47:38.417Z,100962.47
2022-12-20T20:50:12.006Z,100962.47
2022-12-20T20:52:45.138Z,100962.06
2022-12-20T20:55:18.215Z,100972.28
2022-12-20T20:57:52.817Z,100967.53
2022-12-20T21:00:29.282Z,100962.75
2022-12-20T21:03:02.510Z,100961.56
2022-12-20T21:06:14.166Z,100956.50
2022-12-20T21:08:29.280Z,100949.72
2022-12-20T21:11:06.390Z,100962.25
2022-12-20T21:13:41.417Z,100974.81
2022-12-20T21:16:21.059Z,100984.25
2022-12-20T21:18:55.248Z,100983.47
2022-12-20T21:21:28.579Z,100970.84
2022-12-20T21:24:01.774Z,100968.59
2022-12-20T21:26:40.562Z,100981.88
2022-12-20T21:29:13.868Z,100975.16
2022-12-20T21:31:48.328Z,100966.09
2022-12-20T21:34:21.717Z,100958.97
2022-12-20T21:36:54.736Z,100949.66
2022-12-20T21:39:29.891Z,100965.75
2022-12-20T21:42:05.184Z,100971.09
2022-12-20T21:44:38.353Z,100971.38
2022-12-20T21:47:12.960Z,100976.84
2022-12-20T21:49:46.199Z,100978.28
2022-12-20T21:52:23.247Z,100979.97
2022-12-20T21:55:00.544Z,100979.72
2022-12-20T21:57:34.394Z,100983.13
2022-12-20T22:00:11.209Z,100977.72
2022-12-20T22:02:47.160Z,100975.34
2022-12-20T22:05:20.516Z,100981.34
2022-12-20T22:07:53.739Z,100976.72
2022-12-20T22:10:27.852Z,100979.69
2022-12-20T22:13:01.390Z,100982.03
2022-12-20T22:15:34.892Z,100983.50
2022-12-20T22:18:12.712Z,100984.31
2022-12-20T22:20:46.531Z,100991.22
2022-12-20T22:23:19.594Z,100991.28
2022-12-20T22:25:52.406Z,100995.13
2022-12-20T22:28:25.657Z,100994.31
2022-12-20T22:31:00.645Z,100990.72
2022-12-20T22:33:35.813Z,100990.44
2022-12-20T22:36:10.139Z,100992.72
2022-12-20T22:38:46.677Z,100990.44
2022-12-20T22:41:22.465Z,100996.59
2022-12-20T22:43:56.096Z,100983.28
2022-12-20T22:46:30.294Z,100986.31
2022-12-20T22:49:04.839Z,100978.69
2022-12-20T22:51:38.081Z,100983.38
2022-12-20T22:54:11.160Z,100990.50
2022-12-20T22:56:46.574Z,100989.63
2022-12-20T22:59:19.661Z,100994.31
2022-12-20T23:01:52.706Z,100991.88
2022-12-20T23:04:27.349Z,101003.44
2022-12-20T23:07:00.269Z,101006.75
2022-12-20T23:09:33.179Z,101007.09
2022-12-20T23:12:23.939Z,101011.44
2022-12-20T23:15:17.131Z,101010.63
2022-12-20T23:17:50.051Z,101007.03
2022-12-20T23:20:41.958Z,101005.09
2022-12-20T23:23:15.172Z,101004.38
2022-12-20T23:25:48.539Z,101000.41
2022-12-20T23:28:23.662Z,101004.22
2022-12-20T23:30:56.766Z,101000.69
2022-12-20T23:33:29.688Z,101007.25
2022-12-20T23:36:06.256Z,101008.03
2022-12-20T23:38:40.100Z,101013.22
2022-12-20T23:41:15.600Z,101012.41
2022-12-20T23:43:48.336Z,101012.56
2022-12-20T23:46:21.907Z,101008.50
2022-12-20T23:48:54.990Z,101014.25
2022-12-20T23:51:28.947Z,101015.81
2022-12-20T23:54:01.890Z,101008.78
2022-12-20T23:56:34.496Z,101006.03
2022-12-20T23:59:07.448Z,101010.28
